createdAt,value
2017-12-31T15:13:36.037Z,1.40
2017-12-31T15:14:36.023Z,1.80
2017-12-31T15:16:28.989Z,2.00
2017-12-31T15:17:28.938Z,1.90
2017-12-31T15:19:21.879Z,1.70
2017-12-31T15:20:21.838Z,1.90
2017-12-31T15:22:14.755Z,1.80
2017-12-31T15:23:14.751Z,1.70
2017-12-31T15:25:07.667Z,1.80
2017-12-31T15:26:07.654Z,1.90
2017-12-31T15:28:00.549Z,1.80
2017-12-31T15:29:00.546Z,1.60
2017-12-31T15:30:53.472Z,1.60
2017-12-31T15:31:53.449Z,1.40
2017-12-31T15:33:31.395Z,1.50
2017-12-31T15:34:31.383Z,1.80
2017-12-31T15:36:24.289Z,1.60
2017-12-31T15:37:24.294Z,1.70
2017-12-31T15:39:17.161Z,1.70
2017-12-31T15:40:17.145Z,1.70
2017-12-31T15:42:10.066Z,1.80
2017-12-31T15:43:10.047Z,1.60
2017-12-31T15:45:02.945Z,1.70
2017-12-31T15:49:09.456Z,1.50
2017-12-31T15:50:09.435Z,1.50
2017-12-31T15:52:01.336Z,1.50
2017-12-31T15:53:01.324Z,1.70
2017-12-31T15:54:53.247Z,1.60
2017-12-31T15:55:53.228Z,1.60
2017-12-31T15:57:45.134Z,1.50
2017-12-31T15:58:45.131Z,1.40
2017-12-31T16:00:37.051Z,1.40
2017-12-31T16:01:37.049Z,1.50
2017-12-31T16:03:28.927Z,1.50
2017-12-31T16:04:28.919Z,1.50
2017-12-31T16:06:20.843Z,1.70
2017-12-31T16:07:20.827Z,1.50
2017-12-31T16:09:12.785Z,1.60
2017-12-31T16:10:12.755Z,1.50
2017-12-31T16:12:04.681Z,1.60
2017-12-31T16:13:04.652Z,1.50
2017-12-31T16:14:56.581Z,1.60
2017-12-31T16:15:56.567Z,1.50
2017-12-31T16:17:48.500Z,1.50
2017-12-31T16:18:48.492Z,1.30
2017-12-31T16:20:40.445Z,1.50
2017-12-31T16:21:40.427Z,1.60
2017-12-31T16:23:32.364Z,1.50
2017-12-31T16:24:32.356Z,1.50
2017-12-31T16:26:24.280Z,1.60
2017-12-31T16:27:24.262Z,1.50
2017-12-31T16:29:16.264Z,1.50
2017-12-31T16:30:16.261Z,1.50
2017-12-31T16:32:08.216Z,1.50
2017-12-31T16:33:08.204Z,1.80
2017-12-31T16:35:00.112Z,1.70
2017-12-31T16:36:00.099Z,1.50
2017-12-31T16:37:52.009Z,1.40
2017-12-31T16:40:08.846Z,1.60
2017-12-31T16:41:08.831Z,2.10
2017-12-31T16:43:01.756Z,2.00
2017-12-31T16:44:01.736Z,1.90
2017-12-31T16:45:54.681Z,1.90
2017-12-31T16:46:54.673Z,2.00
2017-12-31T16:48:47.569Z,2.20
2017-12-31T16:49:47.557Z,1.90
2017-12-31T16:51:40.441Z,2.00
2017-12-31T16:52:40.414Z,2.10
2017-12-31T16:54:33.346Z,2.00
2017-12-31T16:55:33.309Z,2.10
2017-12-31T16:57:26.690Z,2.30
2017-12-31T16:58:26.673Z,2.30
2017-12-31T17:00:19.721Z,2.20
2017-12-31T17:01:20.615Z,2.50
2017-12-31T17:03:12.630Z,2.50
2017-12-31T17:04:12.613Z,2.30
2017-12-31T17:06:05.580Z,2.40
2017-12-31T17:07:05.539Z,2.40
2017-12-31T17:08:58.450Z,2.60
2017-12-31T17:09:58.428Z,2.30
2017-12-31T17:11:51.371Z,2.50
2017-12-31T17:12:51.341Z,2.40
2017-12-31T17:14:44.238Z,2.50
2017-12-31T17:15:44.207Z,2.50
2017-12-31T17:17:37.177Z,2.70
2017-12-31T17:18:37.196Z,2.40
2017-12-31T17:20:30.054Z,2.50
2017-12-31T17:21:30.041Z,2.50
2017-12-31T17:23:22.929Z,2.50
2017-12-31T17:24:22.901Z,2.60
2017-12-31T17:26:15.820Z,2.60
2017-12-31T17:27:15.802Z,2.70
2017-12-31T17:29:08.744Z,2.60
2017-12-31T17:30:08.731Z,2.50
2017-12-31T17:32:01.608Z,2.50
2017-12-31T17:33:01.592Z,2.60
2017-12-31T17:34:54.607Z,2.70
2017-12-31T17:35:54.577Z,2.60
2017-12-31T17:37:47.599Z,2.70
2017-12-31T17:38:47.585Z,2.70
2017-12-31T17:40:40.602Z,3.20
2017-12-31T17:41:40.579Z,3.40
2017-12-31T17:43:33.573Z,3.40
2017-12-31T17:44:33.560Z,3.70
2017-12-31T17:46:26.464Z,3.70
2017-12-31T17:47:26.435Z,3.90
2017-12-31T17:49:19.369Z,4.10
2017-12-31T17:50:19.335Z,4.30
2017-12-31T17:52:12.252Z,4.20
2017-12-31T17:53:12.234Z,4.50
2017-12-31T17:55:05.182Z,4.50
2017-12-31T17:56:05.137Z,4.60
2017-12-31T17:57:58.112Z,4.60
2017-12-31T17:58:58.097Z,4.50
2017-12-31T18:00:50.970Z,4.50
2017-12-31T18:01:50.963Z,4.70
2017-12-31T18:03:43.882Z,4.30
2017-12-31T18:04:43.862Z,4.30
2017-12-31T18:06:36.850Z,4.10
2017-12-31T18:07:36.820Z,3.80
2017-12-31T18:09:29.728Z,4.20
2017-12-31T18:10:29.707Z,4.10
2017-12-31T18:12:22.689Z,3.80
2017-12-31T18:13:22.657Z,4.50
2017-12-31T18:15:15.640Z,4.30
2017-12-31T18:16:15.612Z,4.20
2017-12-31T18:18:08.635Z,4.30
2017-12-31T18:19:08.620Z,4.60
2017-12-31T18:21:01.681Z,4.40
2017-12-31T18:22:01.627Z,4.30
2017-12-31T18:23:54.738Z,4.30
2017-12-31T18:24:54.585Z,4.60
2017-12-31T18:26:47.630Z,4.80
2017-12-31T18:27:47.608Z,4.40
2017-12-31T18:29:40.636Z,4.40
2017-12-31T18:30:40.606Z,4.10
2017-12-31T18:32:33.504Z,4.00
2017-12-31T18:33:33.477Z,4.20
2017-12-31T18:35:26.376Z,4.20
2017-12-31T18:36:26.352Z,4.10
2017-12-31T18:38:19.265Z,4.30
2017-12-31T18:39:19.244Z,4.20
2017-12-31T18:41:12.234Z,3.90
2017-12-31T18:42:12.202Z,4.00
2017-12-31T18:44:05.651Z,4.30
2017-12-31T18:45:05.159Z,3.80
2017-12-31T18:46:58.138Z,3.90
2017-12-31T18:47:58.109Z,4.20
2017-12-31T18:49:51.083Z,3.90
2017-12-31T18:50:51.065Z,4.30
2017-12-31T18:52:43.948Z,4.20
2017-12-31T18:53:43.929Z,4.20
2017-12-31T18:55:36.897Z,3.90
2017-12-31T18:56:36.878Z,3.90
2017-12-31T18:58:29.855Z,4.10
2017-12-31T18:59:29.848Z,3.70
2017-12-31T19:01:22.729Z,4.30
2017-12-31T19:02:22.696Z,4.30
2017-12-31T19:04:15.657Z,3.80
2017-12-31T19:05:15.627Z,4.10
2017-12-31T19:07:08.609Z,4.00
2017-12-31T19:08:08.591Z,3.80
2017-12-31T19:10:01.597Z,4.30
2017-12-31T19:11:01.550Z,3.90
2017-12-31T19:12:54.512Z,3.90
2017-12-31T19:13:54.493Z,3.80
2017-12-31T19:15:47.423Z,3.90
2017-12-31T19:16:47.391Z,3.80
2017-12-31T19:18:40.349Z,4.10
2017-12-31T19:19:40.324Z,3.90
2017-12-31T19:21:33.287Z,4.20
2017-12-31T19:22:33.307Z,3.90
2017-12-31T19:24:26.235Z,3.90
2017-12-31T19:25:26.213Z,3.90
2017-12-31T19:27:19.191Z,4.40
2017-12-31T19:28:19.162Z,3.90
2017-12-31T19:30:12.138Z,4.10
2017-12-31T19:31:12.120Z,4.00
2017-12-31T19:33:05.103Z,4.20
2017-12-31T19:34:05.071Z,4.10
2017-12-31T19:35:58.048Z,4.40
2017-12-31T19:36:58.024Z,4.10
2017-12-31T19:38:51.012Z,4.20
2017-12-31T19:39:50.982Z,4.10
2017-12-31T19:41:43.878Z,4.20
2017-12-31T19:42:43.857Z,4.20
2017-12-31T19:44:36.855Z,4.20
2017-12-31T19:45:36.835Z,4.20
2017-12-31T19:47:29.869Z,4.40
2017-12-31T19:48:29.838Z,4.80
2017-12-31T19:50:22.822Z,4.20
2017-12-31T19:51:22.807Z,4.20
2017-12-31T19:53:15.724Z,4.30
2017-12-31T19:54:15.672Z,4.50
2017-12-31T19:56:08.695Z,4.40
2017-12-31T19:57:08.650Z,5.00
2017-12-31T19:59:01.707Z,4.80
2017-12-31T20:00:01.663Z,4.80
2017-12-31T20:01:54.633Z,4.90
2017-12-31T20:02:54.614Z,4.60
2017-12-31T20:04:47.572Z,4.80
2017-12-31T20:05:47.536Z,4.90
2017-12-31T20:07:40.540Z,5.20
2017-12-31T20:08:40.528Z,4.90
2017-12-31T20:10:33.522Z,4.60
2017-12-31T20:11:33.477Z,5.30
2017-12-31T20:13:26.389Z,5.10
2017-12-31T20:14:26.349Z,5.30
2017-12-31T20:16:19.319Z,5.30
2017-12-31T20:17:19.354Z,5.00
2017-12-31T20:19:12.237Z,5.00
2017-12-31T20:20:12.192Z,5.70
2017-12-31T20:22:05.228Z,5.40
2017-12-31T20:23:05.193Z,5.70
2017-12-31T20:24:58.133Z,5.50
2017-12-31T20:25:58.109Z,5.40
2017-12-31T20:27:51.187Z,6.30
2017-12-31T20:28:51.090Z,6.50
2017-12-31T20:30:43.972Z,5.90
2017-12-31T20:31:43.953Z,6.30
2017-12-31T20:33:36.898Z,6.50
2017-12-31T20:34:36.868Z,6.60
2017-12-31T20:36:29.885Z,6.90
2017-12-31T20:37:29.865Z,7.30
2017-12-31T20:39:22.847Z,7.00
2017-12-31T20:40:22.817Z,7.10
2017-12-31T20:42:15.803Z,7.40
2017-12-31T20:43:15.769Z,7.30
2017-12-31T20:45:08.691Z,8.00
2017-12-31T20:46:08.665Z,8.30
2017-12-31T20:48:01.635Z,7.80
2017-12-31T20:49:01.603Z,8.00
2017-12-31T20:50:54.552Z,8.00
2017-12-31T20:51:54.530Z,8.10
2017-12-31T20:53:47.424Z,8.60
2017-12-31T20:54:47.381Z,8.60
2017-12-31T20:56:40.315Z,8.70
2017-12-31T20:57:40.236Z,9.00
2017-12-31T20:59:33.220Z,8.70
2017-12-31T21:00:33.188Z,8.30
2017-12-31T21:02:26.092Z,8.90
2017-12-31T21:03:26.052Z,9.00
2017-12-31T21:05:19.035Z,8.40
2017-12-31T21:06:18.989Z,9.00
2017-12-31T21:08:11.938Z,9.10
2017-12-31T21:09:11.916Z,9.10
2017-12-31T21:11:04.935Z,9.20
2017-12-31T21:12:04.904Z,8.70
2017-12-31T21:13:57.912Z,9.60
2017-12-31T21:14:57.857Z,9.10
2017-12-31T21:16:50.821Z,9.60
2017-12-31T21:17:50.797Z,9.40
2017-12-31T21:19:43.722Z,9.00
2017-12-31T21:20:43.687Z,9.20
2017-12-31T21:22:36.650Z,9.50
2017-12-31T21:23:36.671Z,9.80
2017-12-31T21:25:29.504Z,9.50
2017-12-31T21:26:29.473Z,9.70
2017-12-31T21:28:22.447Z,9.90
2017-12-31T21:29:22.416Z,10.00
2017-12-31T21:31:15.347Z,9.70
2017-12-31T21:32:15.295Z,9.80
2017-12-31T21:34:08.253Z,23.20
2017-12-31T21:35:08.227Z,24.70
2017-12-31T21:37:01.363Z,75.60
2017-12-31T21:38:01.297Z,87.60
2017-12-31T21:39:54.171Z,87.80
2017-12-31T21:40:54.148Z,68.20
2017-12-31T21:42:47.049Z,69.50
2017-12-31T21:43:47.019Z,69.50
2017-12-31T21:45:40.024Z,65.10
2017-12-31T21:46:40.052Z,65.00
2017-12-31T21:48:32.954Z,60.10
2017-12-31T21:49:32.922Z,59.20
2017-12-31T21:51:25.781Z,57.10
2017-12-31T21:52:25.752Z,54.00
2017-12-31T21:54:18.702Z,53.00
2017-12-31T21:55:18.680Z,53.60
2017-12-31T21:57:11.570Z,45.40
2017-12-31T21:58:11.532Z,47.90
2017-12-31T22:00:04.441Z,45.50
2017-12-31T22:01:04.411Z,42.70
2017-12-31T22:02:57.342Z,43.60
2017-12-31T22:03:57.339Z,42.70
2017-12-31T22:05:50.238Z,36.40
2017-12-31T22:06:50.206Z,37.50
2017-12-31T22:08:43.137Z,35.00
2017-12-31T22:09:43.093Z,36.40
2017-12-31T22:11:36.031Z,32.90
2017-12-31T22:12:36.001Z,33.10
2017-12-31T22:14:29.030Z,31.00
2017-12-31T22:15:28.984Z,30.80
2017-12-31T22:17:21.854Z,29.20
2017-12-31T22:18:21.867Z,28.80
2017-12-31T22:20:14.741Z,27.60
2017-12-31T22:21:14.681Z,28.20
2017-12-31T22:23:07.552Z,24.50
2017-12-31T22:24:07.533Z,24.60
2017-12-31T22:26:00.411Z,25.00
2017-12-31T22:27:00.372Z,25.30
2017-12-31T22:28:53.299Z,24.00
2017-12-31T22:29:53.270Z,24.80
2017-12-31T22:31:46.712Z,22.90
2017-12-31T22:32:46.192Z,22.70
2017-12-31T22:34:39.159Z,21.90
2017-12-31T22:35:39.136Z,20.50
2017-12-31T22:37:32.035Z,20.30
2017-12-31T22:38:32.003Z,21.40
2017-12-31T22:40:24.903Z,18.80
2017-12-31T22:41:24.895Z,20.80
2017-12-31T22:43:17.840Z,19.20
2017-12-31T22:44:17.783Z,17.50
2017-12-31T22:46:10.675Z,18.90
2017-12-31T22:47:10.642Z,18.20
2017-12-31T22:49:03.577Z,17.00
2017-12-31T22:50:03.552Z,16.90
2017-12-31T22:51:56.546Z,16.50
2017-12-31T22:52:56.492Z,16.10
2017-12-31T22:54:49.485Z,15.30
2017-12-31T22:55:49.454Z,15.80
2017-12-31T22:57:42.371Z,15.60
2017-12-31T22:58:42.345Z,15.20
2017-12-31T23:00:35.273Z,14.30
2017-12-31T23:01:35.243Z,13.30
2017-12-31T23:03:28.118Z,14.60
2017-12-31T23:04:28.091Z,14.40
2017-12-31T23:06:20.984Z,17.50
2017-12-31T23:07:20.947Z,17.90
2017-12-31T23:09:13.886Z,21.70
2017-12-31T23:10:13.868Z,21.60
2017-12-31T23:12:06.811Z,30.50
2017-12-31T23:13:06.782Z,42.70
2017-12-31T23:14:59.700Z,52.30
2017-12-31T23:15:59.687Z,56.10
2017-12-31T23:17:52.794Z,57.10
2017-12-31T23:18:52.732Z,55.00
2017-12-31T23:20:45.628Z,52.10
2017-12-31T23:21:45.520Z,50.50
2017-12-31T23:23:38.518Z,47.10
2017-12-31T23:24:38.680Z,45.40
2017-12-31T23:26:32.478Z,42.90
2017-12-31T23:27:32.440Z,41.70
2017-12-31T23:29:25.289Z,40.00
2017-12-31T23:30:25.272Z,38.10
2017-12-31T23:32:18.181Z,37.20
2017-12-31T23:33:18.148Z,34.90
2017-12-31T23:35:11.173Z,34.80
2017-12-31T23:36:11.102Z,32.70
2017-12-31T23:38:04.055Z,29.50
2017-12-31T23:39:04.023Z,28.60
2017-12-31T23:40:57.089Z,25.90
2017-12-31T23:41:57.063Z,26.00
2017-12-31T23:43:50.021Z,24.60
2017-12-31T23:44:49.928Z,26.60
2017-12-31T23:46:42.856Z,25.00
2017-12-31T23:47:42.833Z,24.70
2017-12-31T23:49:35.860Z,24.60
2017-12-31T23:50:35.851Z,22.40
2017-12-31T23:52:28.729Z,24.60
2017-12-31T23:53:28.689Z,24.00
2017-12-31T23:55:21.689Z,24.30
2017-12-31T23:56:21.664Z,24.70
2017-12-31T23:58:14.705Z,20.80
2017-12-31T23:59:14.671Z,24.50
